createdAt,value
2019-06-20T00:01:42.031Z,30.10
2019-06-20T00:04:11.892Z,30.10
2019-06-20T00:06:41.741Z,30.10
2019-06-20T00:09:11.818Z,30.10
2019-06-20T00:11:41.701Z,30.00
2019-06-20T00:14:13.156Z,30.00
2019-06-20T00:16:43.066Z,30.10
2019-06-20T00:19:13.314Z,30.00
2019-06-20T00:21:43.111Z,30.00
2019-06-20T00:24:12.906Z,30.00
2019-06-20T00:26:42.702Z,30.10
2019-06-20T00:29:12.537Z,30.10
2019-06-20T00:31:42.458Z,30.00
2019-06-20T00:34:12.253Z,30.00
2019-06-20T00:36:42.083Z,30.00
2019-06-20T00:39:11.881Z,30.00
2019-06-20T00:41:41.672Z,30.10
2019-06-20T00:44:11.469Z,30.00
2019-06-20T00:46:41.741Z,30.00
2019-06-20T00:49:11.543Z,30.00
2019-06-20T00:51:41.346Z,30.00
2019-06-20T00:54:11.614Z,30.00
2019-06-20T00:56:41.500Z,30.00
2019-06-20T00:59:11.305Z,30.00
2019-06-20T01:01:42.190Z,30.00
2019-06-20T01:04:12.347Z,30.00
2019-06-20T01:06:42.198Z,30.00
2019-06-20T01:09:12.175Z,30.00
2019-06-20T01:11:41.973Z,30.00
2019-06-20T01:14:11.840Z,30.00
2019-06-20T01:16:41.646Z,30.00
2019-06-20T01:19:11.436Z,30.00
2019-06-20T01:21:41.237Z,29.90
2019-06-20T01:24:11.081Z,30.00
2019-06-20T01:26:40.876Z,29.90
2019-06-20T01:29:10.693Z,29.90
2019-06-20T01:31:40.498Z,29.90
2019-06-20T01:34:10.292Z,29.90
2019-06-20T01:36:40.623Z,30.00
2019-06-20T01:39:10.376Z,29.90
2019-06-20T01:41:40.281Z,29.90
2019-06-20T01:44:10.102Z,29.90
2019-06-20T01:46:40.244Z,29.90
2019-06-20T01:49:10.142Z,29.90
2019-06-20T01:51:41.002Z,29.90
2019-06-20T01:54:10.804Z,29.90
2019-06-20T01:56:40.707Z,29.90
2019-06-20T01:59:10.489Z,29.90
2019-06-20T02:01:40.650Z,29.90
2019-06-20T02:04:10.787Z,29.90
2019-06-20T02:06:40.560Z,29.90
2019-06-20T02:09:10.358Z,29.80
2019-06-20T02:11:40.168Z,29.80
2019-06-20T02:14:09.988Z,29.80
2019-06-20T02:16:39.836Z,29.80
2019-06-20T02:19:09.645Z,29.80
2019-06-20T02:21:39.516Z,29.80
2019-06-20T02:24:09.315Z,29.80
2019-06-20T02:26:39.190Z,29.80
2019-06-20T02:29:08.990Z,29.80
2019-06-20T02:31:40.250Z,29.80
2019-06-20T02:34:10.049Z,29.80
2019-06-20T02:36:39.954Z,29.80
2019-06-20T02:39:09.755Z,29.80
2019-06-20T02:41:39.578Z,29.80
2019-06-20T02:44:28.349Z,29.70
2019-06-20T02:46:40.795Z,29.80
2019-06-20T02:49:10.603Z,29.70
2019-06-20T02:51:40.397Z,29.70
2019-06-20T02:54:10.208Z,29.80
2019-06-20T02:56:40.002Z,29.80
2019-06-20T02:59:09.808Z,29.80
2019-06-20T03:01:41.479Z,29.70
2019-06-20T03:04:11.228Z,29.70
2019-06-20T03:06:41.046Z,29.70
2019-06-20T03:09:10.876Z,29.70
2019-06-20T03:11:40.677Z,29.60
2019-06-20T03:14:10.854Z,29.60
2019-06-20T03:16:40.748Z,29.60
2019-06-20T03:19:10.541Z,29.50
2019-06-20T03:21:40.371Z,29.60
2019-06-20T03:24:10.623Z,29.50
2019-06-20T03:26:40.413Z,29.40
2019-06-20T03:29:10.328Z,29.40
2019-06-20T03:31:40.125Z,29.40
2019-06-20T03:34:09.999Z,29.40
2019-06-20T03:36:41.442Z,29.40
2019-06-20T03:39:47.217Z,29.40
2019-06-20T03:42:17.096Z,29.30
2019-06-20T03:45:01.228Z,29.20
2019-06-20T03:47:18.778Z,29.20
2019-06-20T03:49:48.544Z,29.10
2019-06-20T03:52:19.276Z,29.10
2019-06-20T03:54:49.102Z,29.10
2019-06-20T03:57:20.265Z,29.20
2019-06-20T03:59:50.089Z,29.30
2019-06-20T04:02:19.899Z,29.30
2019-06-20T04:04:50.123Z,29.00
2019-06-20T04:07:19.904Z,28.80
2019-06-20T04:09:49.706Z,28.70
2019-06-20T04:12:19.745Z,28.90
2019-06-20T04:14:49.546Z,29.20
2019-06-20T04:17:19.355Z,29.30
2019-06-20T04:19:49.204Z,29.40
2019-06-20T04:22:18.982Z,29.50
2019-06-20T04:24:48.785Z,29.50
2019-06-20T04:27:18.581Z,29.50
2019-06-20T04:29:48.557Z,29.50
2019-06-20T04:32:18.438Z,29.40
2019-06-20T04:34:48.240Z,29.20
2019-06-20T04:37:18.400Z,29.10
2019-06-20T04:39:48.208Z,29.30
2019-06-20T04:42:18.915Z,29.50
2019-06-20T04:44:49.690Z,29.60
2019-06-20T04:47:19.445Z,29.70
2019-06-20T04:49:49.310Z,29.80
2019-06-20T04:52:19.113Z,29.90
2019-06-20T04:54:48.917Z,30.00
2019-06-20T04:57:18.722Z,30.00
2019-06-20T04:59:50.175Z,30.00
2019-06-20T05:02:21.749Z,30.00
2019-06-20T05:04:51.528Z,30.10
2019-06-20T05:07:21.333Z,30.30
2019-06-20T05:09:51.141Z,30.10
2019-06-20T05:12:21.306Z,30.00
2019-06-20T05:14:51.195Z,30.10
2019-06-20T05:17:21.015Z,29.80
2019-06-20T05:19:52.497Z,29.70
2019-06-20T05:22:22.782Z,29.60
2019-06-20T05:24:52.601Z,29.70
2019-06-20T05:27:22.422Z,29.70
2019-06-20T05:29:52.322Z,29.70
2019-06-20T05:32:22.130Z,29.80
2019-06-20T05:34:51.932Z,30.00
2019-06-20T05:37:21.863Z,30.20
2019-06-20T05:39:53.135Z,30.40
2019-06-20T05:42:22.948Z,30.50
2019-06-20T05:44:52.754Z,30.60
2019-06-20T05:47:22.560Z,30.80
2019-06-20T05:49:52.461Z,30.70
2019-06-20T05:52:22.274Z,30.70
2019-06-20T05:54:52.078Z,30.80
2019-06-20T05:57:22.450Z,30.80
2019-06-20T05:59:52.392Z,31.00
2019-06-20T06:02:22.205Z,31.20
2019-06-20T06:04:52.099Z,31.30
2019-06-20T06:07:23.056Z,31.40
2019-06-20T06:09:52.988Z,31.50
2019-06-20T06:12:22.794Z,31.60
2019-06-20T06:14:52.659Z,31.80
2019-06-20T06:17:22.438Z,31.90
2019-06-20T06:19:55.130Z,32.00
2019-06-20T06:22:25.143Z,31.90
2019-06-20T06:24:55.148Z,32.00
2019-06-20T06:27:24.982Z,32.20
2019-06-20T06:29:54.782Z,32.30
2019-06-20T06:32:39.174Z,32.40
2019-06-20T06:34:56.012Z,32.30
2019-06-20T06:37:25.899Z,32.40
2019-06-20T06:39:55.735Z,32.40
2019-06-20T06:42:25.924Z,32.30
2019-06-20T06:44:55.750Z,32.10
2019-06-20T06:47:25.540Z,32.10
2019-06-20T06:49:55.352Z,32.30
2019-06-20T06:52:25.164Z,32.50
2019-06-20T06:54:54.973Z,32.60
2019-06-20T06:57:24.781Z,32.70
2019-06-20T06:59:54.931Z,32.80
2019-06-20T07:02:24.747Z,33.00
2019-06-20T07:04:54.549Z,33.10
2019-06-20T07:07:24.546Z,33.30
2019-06-20T07:09:54.361Z,33.40
2019-06-20T07:12:24.415Z,33.50
2019-06-20T07:14:54.285Z,33.70
2019-06-20T07:17:24.306Z,33.80
2019-06-20T07:19:54.116Z,33.80
2019-06-20T07:22:23.932Z,33.80
2019-06-20T07:24:54.074Z,33.70
2019-06-20T07:27:23.868Z,34.00
2019-06-20T07:29:53.778Z,34.10
2019-06-20T07:32:23.580Z,34.30
2019-06-20T07:34:53.946Z,34.40
2019-06-20T07:37:23.786Z,34.50
2019-06-20T07:39:53.644Z,34.60
2019-06-20T07:42:23.445Z,34.80
2019-06-20T07:44:53.264Z,34.90
2019-06-20T07:47:23.198Z,34.80
2019-06-20T07:49:53.471Z,34.90
2019-06-20T07:52:23.273Z,35.00
2019-06-20T07:54:53.236Z,35.20
2019-06-20T07:57:23.122Z,35.30
2019-06-20T07:59:52.934Z,35.20
2019-06-20T08:02:22.746Z,35.30
2019-06-20T08:04:52.558Z,35.40
2019-06-20T08:07:22.341Z,35.60
2019-06-20T08:09:52.546Z,35.80
2019-06-20T08:12:22.360Z,35.90
2019-06-20T08:14:52.175Z,35.80
2019-06-20T08:17:34.889Z,35.90
2019-06-20T08:19:53.461Z,35.90
2019-06-20T08:22:23.266Z,35.80
2019-06-20T08:24:53.684Z,35.50
2019-06-20T08:27:26.126Z,35.70
2019-06-20T08:29:56.578Z,36.00
2019-06-20T08:32:27.318Z,36.10
2019-06-20T08:34:59.002Z,36.00
2019-06-20T08:37:28.889Z,35.90
2019-06-20T08:39:59.940Z,35.90
2019-06-20T08:42:29.949Z,36.10
2019-06-20T08:44:59.758Z,36.30
2019-06-20T08:47:29.654Z,36.20
2019-06-20T08:49:59.781Z,36.30
2019-06-20T08:52:29.812Z,36.00
2019-06-20T08:55:01.052Z,36.00
2019-06-20T08:57:31.197Z,35.90
2019-06-20T09:00:01.056Z,36.10
2019-06-20T09:02:30.931Z,36.30
2019-06-20T09:07:30.821Z,36.40
2019-06-20T09:10:01.849Z,36.50
2019-06-20T09:12:31.865Z,36.50
2019-06-20T09:15:02.972Z,36.40
2019-06-20T09:17:33.125Z,36.50
2019-06-20T09:20:04.639Z,36.50
2019-06-20T09:22:34.494Z,36.50
2019-06-20T09:25:06.562Z,36.50
2019-06-20T09:27:37.018Z,36.50
2019-06-20T09:30:08.258Z,36.50
2019-06-20T09:32:38.150Z,36.60
2019-06-20T09:35:08.392Z,36.60
2019-06-20T09:37:38.438Z,36.60
2019-06-20T09:40:08.780Z,36.60
2019-06-20T09:42:38.629Z,36.70
2019-06-20T09:45:13.804Z,36.70
2019-06-20T09:47:43.706Z,36.70
2019-06-20T09:50:14.320Z,36.70
2019-06-20T09:52:44.544Z,36.50
2019-06-20T09:55:14.345Z,36.50
2019-06-20T09:57:44.569Z,36.50
2019-06-20T10:00:16.515Z,36.60
2019-06-20T10:02:47.142Z,36.60
2019-06-20T10:05:18.310Z,36.70
2019-06-20T10:07:48.687Z,36.70
2019-06-20T10:10:19.756Z,36.80
2019-06-20T10:12:49.660Z,36.80
2019-06-20T10:15:31.019Z,36.70
2019-06-20T10:18:00.881Z,36.60
2019-06-20T10:20:31.145Z,36.60
2019-06-20T10:23:00.967Z,36.60
2019-06-20T10:25:30.768Z,36.60
2019-06-20T10:28:00.572Z,36.50
2019-06-20T10:30:30.375Z,36.50
2019-06-20T10:33:00.170Z,36.50
2019-06-20T10:35:30.045Z,36.50
2019-06-20T10:37:59.906Z,36.40
2019-06-20T10:40:29.716Z,36.20
2019-06-20T10:42:59.633Z,36.10
2019-06-20T10:45:29.685Z,36.10
2019-06-20T10:47:59.588Z,36.10
2019-06-20T10:50:29.402Z,36.00
2019-06-20T10:52:59.282Z,35.90
2019-06-20T10:55:29.209Z,35.60
2019-06-20T10:57:59.010Z,35.60
2019-06-20T11:00:31.658Z,35.40
2019-06-20T11:03:00.316Z,35.40
2019-06-20T11:05:30.118Z,35.30
2019-06-20T11:07:59.922Z,35.10
2019-06-20T11:10:29.791Z,35.00
2019-06-20T11:12:59.647Z,35.00
2019-06-20T11:15:30.410Z,34.90
2019-06-20T11:18:00.517Z,34.80
2019-06-20T11:20:30.715Z,34.70
2019-06-20T11:23:00.517Z,34.60
2019-06-20T11:25:30.668Z,34.60
2019-06-20T11:28:00.467Z,34.50
2019-06-20T11:30:45.021Z,34.40
2019-06-20T11:33:02.255Z,34.40
2019-06-20T11:35:32.285Z,34.40
2019-06-20T11:38:02.299Z,34.40
2019-06-20T11:40:32.077Z,34.30
2019-06-20T11:43:02.334Z,34.10
2019-06-20T11:45:32.224Z,34.10
2019-06-20T11:48:02.027Z,34.10
2019-06-20T11:50:31.840Z,34.10
2019-06-20T11:53:01.997Z,34.00
2019-06-20T11:55:31.793Z,34.00
2019-06-20T11:58:01.633Z,33.90
2019-06-20T12:00:31.550Z,33.90
2019-06-20T12:03:01.905Z,34.00
2019-06-20T12:05:31.783Z,34.00
2019-06-20T12:08:01.694Z,34.00
2019-06-20T12:10:31.609Z,33.90
2019-06-20T12:13:02.189Z,33.90
2019-06-20T12:15:31.996Z,33.80
2019-06-20T12:18:02.962Z,33.80
2019-06-20T12:20:32.831Z,33.80
2019-06-20T12:23:02.624Z,33.80
2019-06-20T12:25:32.430Z,33.90
2019-06-20T12:28:02.261Z,33.90
2019-06-20T12:30:32.071Z,33.90
2019-06-20T12:33:02.050Z,33.90
2019-06-20T12:35:31.928Z,33.80
2019-06-20T12:38:01.770Z,33.80
2019-06-20T12:40:31.583Z,33.80
2019-06-20T12:43:01.541Z,33.80
2019-06-20T12:45:31.414Z,33.80
2019-06-20T12:48:02.857Z,33.90
2019-06-20T12:50:32.678Z,33.90
2019-06-20T12:53:02.619Z,33.80
2019-06-20T12:55:32.538Z,33.90
2019-06-20T12:58:03.349Z,33.90
2019-06-20T13:00:33.477Z,33.80
2019-06-20T13:03:03.278Z,33.80
2019-06-20T13:05:33.172Z,33.70
2019-06-20T13:08:03.126Z,33.70
2019-06-20T13:10:33.009Z,33.70
2019-06-20T13:13:02.829Z,33.70
2019-06-20T13:15:33.059Z,33.70
2019-06-20T13:18:02.864Z,33.60
2019-06-20T13:20:32.664Z,33.70
2019-06-20T13:23:04.258Z,33.60
2019-06-20T13:25:34.153Z,33.60
2019-06-20T13:28:05.319Z,33.50
2019-06-20T13:30:35.214Z,33.60
2019-06-20T13:33:05.020Z,33.60
2019-06-20T13:35:35.162Z,33.60
2019-06-20T13:38:05.053Z,33.60
2019-06-20T13:40:35.802Z,33.60
2019-06-20T13:43:05.605Z,33.60
2019-06-20T13:45:35.475Z,33.60
2019-06-20T13:48:05.380Z,33.60
2019-06-20T13:50:35.225Z,33.60
2019-06-20T13:53:05.399Z,33.60
2019-06-20T13:55:35.318Z,33.60
2019-06-20T13:58:05.175Z,33.60
2019-06-20T14:00:34.985Z,33.50
2019-06-20T14:03:04.832Z,33.50
2019-06-20T14:05:34.740Z,33.50
2019-06-20T14:08:04.719Z,33.50
2019-06-20T14:10:34.897Z,33.60
2019-06-20T14:13:18.731Z,33.60
2019-06-20T14:15:36.904Z,33.60
2019-06-20T14:18:06.527Z,33.60
2019-06-20T14:20:36.790Z,33.60
2019-06-20T14:23:06.607Z,33.60
2019-06-20T14:25:36.397Z,33.60
2019-06-20T14:28:06.572Z,33.60
2019-06-20T14:30:36.360Z,33.60
2019-06-20T14:33:06.157Z,33.60
2019-06-20T14:35:35.966Z,33.60
2019-06-20T14:38:05.885Z,33.60
2019-06-20T14:40:35.759Z,33.60
2019-06-20T14:43:05.565Z,33.60
2019-06-20T14:45:38.020Z,33.60
2019-06-20T14:48:06.876Z,33.60
2019-06-20T14:50:36.690Z,33.60
2019-06-20T14:53:06.495Z,33.50
2019-06-20T14:55:36.294Z,33.50
2019-06-20T14:58:06.092Z,33.60
2019-06-20T15:00:35.888Z,33.60
2019-06-20T15:03:05.895Z,33.50
2019-06-20T15:05:35.821Z,33.50
2019-06-20T15:08:05.692Z,33.50
2019-06-20T15:10:35.511Z,33.50
2019-06-20T15:13:05.646Z,33.50
2019-06-20T15:15:35.678Z,33.50
2019-06-20T15:18:05.451Z,33.60
2019-06-20T15:20:35.258Z,33.50
2019-06-20T15:23:05.117Z,33.50
2019-06-20T15:25:34.981Z,33.50
2019-06-20T15:28:04.800Z,32.90
2019-06-20T15:30:34.949Z,32.40
2019-06-20T15:33:10.082Z,32.20
2019-06-20T15:35:36.245Z,32.20
2019-06-20T15:38:06.053Z,32.10
2019-06-20T15:40:35.851Z,32.00
2019-06-20T15:43:06.755Z,32.00
2019-06-20T15:45:36.553Z,31.90
2019-06-20T15:48:06.485Z,31.80
2019-06-20T15:50:36.277Z,31.70
2019-06-20T15:53:06.076Z,31.80
2019-06-20T15:55:35.885Z,31.80
2019-06-20T15:58:05.688Z,31.80
2019-06-20T16:00:35.500Z,31.80
2019-06-20T16:03:10.025Z,31.80
2019-06-20T16:05:40.424Z,31.80
2019-06-20T16:08:09.072Z,31.70
2019-06-20T16:10:38.894Z,31.70
2019-06-20T16:13:08.696Z,31.60
2019-06-20T16:15:38.503Z,31.60
2019-06-20T16:18:07.625Z,31.60
2019-06-20T16:20:37.312Z,31.60
2019-06-20T16:23:07.461Z,31.60
2019-06-20T16:25:37.300Z,31.70
2019-06-20T16:28:07.066Z,31.60
2019-06-20T16:30:37.946Z,31.70
2019-06-20T16:33:07.743Z,31.60
2019-06-20T16:35:37.546Z,31.60
2019-06-20T16:38:07.354Z,31.60
2019-06-20T16:40:40.410Z,31.60
2019-06-20T16:43:10.209Z,31.60
2019-06-20T16:45:40.007Z,31.70
2019-06-20T16:48:09.926Z,31.60
2019-06-20T16:50:39.791Z,31.60
2019-06-20T16:53:09.598Z,31.60
2019-06-20T16:55:39.402Z,31.60
2019-06-20T16:58:09.205Z,31.70
2019-06-20T17:00:39.010Z,31.70
2019-06-20T17:03:08.949Z,31.70
2019-06-20T17:05:38.865Z,31.70
2019-06-20T17:08:11.349Z,31.70
2019-06-20T17:10:41.148Z,31.60
2019-06-20T17:13:11.026Z,31.50
2019-06-20T17:15:40.825Z,31.50
2019-06-20T17:18:10.660Z,31.50
2019-06-20T17:20:40.615Z,31.40
2019-06-20T17:23:10.488Z,31.40
2019-06-20T17:25:40.465Z,31.40
2019-06-20T17:28:10.269Z,31.50
2019-06-20T17:30:40.437Z,31.40
2019-06-20T17:33:10.239Z,31.40
2019-06-20T17:35:40.036Z,31.40
2019-06-20T17:38:09.269Z,31.40
2019-06-20T17:40:38.847Z,31.40
2019-06-20T17:43:09.062Z,31.30
2019-06-20T17:45:38.923Z,31.40
2019-06-20T17:48:08.722Z,31.40
2019-06-20T17:50:38.530Z,31.40
2019-06-20T17:53:08.339Z,31.40
2019-06-20T17:55:38.226Z,31.40
2019-06-20T17:58:08.019Z,31.30
2019-06-20T18:00:37.894Z,31.30
2019-06-20T18:03:07.777Z,31.30
2019-06-20T18:05:37.649Z,31.30
2019-06-20T18:08:15.275Z,31.30
2019-06-20T18:10:38.867Z,31.20
2019-06-20T18:13:08.734Z,31.20
2019-06-20T18:15:38.948Z,31.20
2019-06-20T18:18:08.750Z,31.20
2019-06-20T18:20:38.549Z,31.20
2019-06-20T18:23:08.809Z,31.20
2019-06-20T18:25:38.750Z,31.10
2019-06-20T18:28:08.520Z,31.10
2019-06-20T18:30:43.391Z,31.10
2019-06-20T18:33:14.262Z,30.90
2019-06-20T18:35:44.069Z,31.00
2019-06-20T18:38:13.941Z,30.90
2019-06-20T18:40:43.935Z,30.90
2019-06-20T18:43:13.850Z,30.80
2019-06-20T18:45:43.936Z,30.80
2019-06-20T18:48:13.805Z,30.70
2019-06-20T18:50:43.676Z,30.70
2019-06-20T18:53:13.614Z,30.60
2019-06-20T18:55:43.525Z,30.50
2019-06-20T18:58:13.320Z,30.40
2019-06-20T19:00:43.126Z,30.40
2019-06-20T19:03:12.930Z,30.20
2019-06-20T19:05:42.724Z,30.10
2019-06-20T19:08:12.524Z,30.00
2019-06-20T19:10:42.413Z,30.00
2019-06-20T19:13:13.085Z,29.90
2019-06-20T19:15:43.164Z,30.00
2019-06-20T19:18:13.230Z,30.00
2019-06-20T19:20:43.030Z,30.00
2019-06-20T19:23:13.974Z,29.90
2019-06-20T19:25:43.862Z,29.80
2019-06-20T19:28:13.665Z,29.70
2019-06-20T19:30:49.219Z,29.70
2019-06-20T19:33:19.049Z,29.60
2019-06-20T19:35:48.909Z,29.60
2019-06-20T19:38:19.189Z,29.50
2019-06-20T19:40:49.633Z,29.40
2019-06-20T19:43:19.422Z,29.30
2019-06-20T19:45:49.346Z,29.20
2019-06-20T19:48:19.182Z,29.10
2019-06-20T19:50:48.976Z,29.10
2019-06-20T19:53:18.812Z,29.00
2019-06-20T19:55:48.638Z,29.00
2019-06-20T19:58:18.441Z,29.00
2019-06-20T20:00:48.394Z,29.00
2019-06-20T20:03:18.271Z,28.90
2019-06-20T20:05:48.154Z,29.00
2019-06-20T20:08:17.993Z,28.90
2019-06-20T20:10:48.865Z,28.90
2019-06-20T20:13:18.886Z,28.70
2019-06-20T20:15:48.685Z,28.60
2019-06-20T20:18:19.535Z,28.50
2019-06-20T20:20:49.338Z,28.40
2019-06-20T20:23:19.217Z,28.40
2019-06-20T20:25:54.482Z,28.30
2019-06-20T20:28:24.484Z,28.30
2019-06-20T20:30:54.334Z,28.30
2019-06-20T20:33:24.138Z,28.30
2019-06-20T20:35:54.006Z,28.40
2019-06-20T20:38:23.808Z,28.30
2019-06-20T20:40:53.622Z,28.30
2019-06-20T20:43:23.806Z,28.20
2019-06-20T20:45:53.600Z,28.10
2019-06-20T20:48:23.395Z,27.90
2019-06-20T20:50:53.197Z,28.00
2019-06-20T20:53:23.090Z,27.90
2019-06-20T20:55:52.871Z,27.70
2019-06-20T20:58:22.668Z,27.70
2019-06-20T21:01:01.407Z,27.70
2019-06-20T21:03:31.381Z,27.70
2019-06-20T21:06:02.822Z,27.60
2019-06-20T21:08:32.975Z,27.60
2019-06-20T21:11:04.134Z,27.70
2019-06-20T21:13:33.929Z,27.70
2019-06-20T21:16:03.879Z,27.70
2019-06-20T21:18:33.814Z,27.60
2019-06-20T21:21:03.558Z,27.60
2019-06-20T21:23:33.952Z,27.60
2019-06-20T21:26:03.741Z,27.60
2019-06-20T21:28:33.550Z,27.50
2019-06-20T21:31:03.348Z,27.30
2019-06-20T21:33:33.601Z,27.30
2019-06-20T21:36:08.593Z,27.40
2019-06-20T21:38:34.820Z,27.50
2019-06-20T21:41:04.653Z,27.50
2019-06-20T21:43:34.463Z,27.50
2019-06-20T21:46:06.792Z,27.50
2019-06-20T21:48:35.763Z,27.40
2019-06-20T21:51:05.852Z,27.30
2019-06-20T21:53:35.655Z,27.30
2019-06-20T21:56:05.561Z,27.20
2019-06-20T21:58:35.351Z,27.30
2019-06-20T22:01:05.593Z,27.30
2019-06-20T22:03:36.071Z,27.30
2019-06-20T22:06:05.954Z,27.30
2019-06-20T22:08:37.198Z,27.30
2019-06-20T22:11:07.004Z,27.40
2019-06-20T22:13:36.825Z,27.20
2019-06-20T22:16:06.615Z,27.10
2019-06-20T22:18:36.492Z,27.10
2019-06-20T22:21:07.529Z,27.20
2019-06-20T22:23:38.396Z,27.30
2019-06-20T22:26:08.198Z,27.20
2019-06-20T22:28:38.033Z,26.90
2019-06-20T22:31:07.837Z,27.00
2019-06-20T22:33:37.629Z,27.60
2019-06-20T22:36:07.493Z,28.10
2019-06-20T22:38:37.298Z,28.30
2019-06-20T22:41:07.096Z,28.60
2019-06-20T22:43:37.334Z,28.70
2019-06-20T22:46:07.167Z,28.80
2019-06-20T22:48:37.002Z,28.90
2019-06-20T22:51:06.784Z,29.00
2019-06-20T22:53:36.600Z,29.00
2019-06-20T22:56:06.406Z,29.00
2019-06-20T22:58:36.205Z,28.90
2019-06-20T23:01:06.294Z,28.50
2019-06-20T23:03:36.501Z,28.40
2019-06-20T23:06:06.142Z,28.70
2019-06-20T23:08:35.980Z,28.90
2019-06-20T23:11:06.122Z,28.90
2019-06-20T23:13:35.924Z,29.00
2019-06-20T23:16:05.839Z,29.10
2019-06-20T23:18:35.835Z,29.20
2019-06-20T23:21:05.668Z,29.20
2019-06-20T23:23:35.573Z,29.30
2019-06-20T23:26:09.486Z,29.30
2019-06-20T23:28:39.398Z,29.30
2019-06-20T23:31:09.481Z,29.30
2019-06-20T23:33:39.281Z,29.40
2019-06-20T23:36:09.075Z,29.40
2019-06-20T23:38:38.953Z,29.30
2019-06-20T23:41:08.803Z,29.40
2019-06-20T23:43:39.633Z,29.40
2019-06-20T23:46:09.746Z,29.40
2019-06-20T23:48:39.676Z,29.40
2019-06-20T23:51:24.758Z,29.40
2019-06-20T23:53:40.886Z,29.40
2019-06-20T23:56:10.744Z,29.20
2019-06-20T23:58:40.640Z,29.30
